sensor_id;sensor_type;location;lat;lon;timestamp;P1;durP1;ratioP1;P2;durP2;ratioP2
49860;SDS011;35761;48.826;9.238;2024-02-16T00:02:09;8.50;;;3.75;;
49860;SDS011;35761;48.826;9.238;2024-02-16T00:04:37;13.02;;;4.22;;
49860;SDS011;35761;48.826;9.238;2024-02-16T00:07:03;7.32;;;3.30;;
49860;SDS011;35761;48.826;9.238;2024-02-16T00:09:49;11.90;;;3.63;;
49860;SDS011;35761;48.826;9.238;2024-02-16T00:12:15;7.72;;;3.65;;
49860;SDS011;35761;48.826;9.238;2024-02-16T00:14:42;10.52;;;4.38;;
49860;SDS011;35761;48.826;9.238;2024-02-16T00:17:08;5.38;;;3.42;;
49860;SDS011;35761;48.826;9.238;2024-02-16T00:19:35;7.93;;;3.58;;
49860;SDS011;35761;48.826;9.238;2024-02-16T00:22:01;7.20;;;3.47;;
49860;SDS011;35761;48.826;9.238;2024-02-16T00:24:27;6.97;;;3.00;;
49860;SDS011;35761;48.826;9.238;2024-02-16T00:26:53;11.88;;;3.53;;
49860;SDS011;35761;48.826;9.238;2024-02-16T00:29:18;12.43;;;3.20;;
49860;SDS011;35761;48.826;9.238;2024-02-16T00:31:44;8.15;;;3.50;;
49860;SDS011;35761;48.826;9.238;2024-02-16T00:34:10;8.45;;;3.80;;
49860;SDS011;35761;48.826;9.238;2024-02-16T00:36:36;10.00;;;3.80;;
49860;SDS011;35761;48.826;9.238;2024-02-16T00:39:02;12.65;;;4.07;;
49860;SDS011;35761;48.826;9.238;2024-02-16T00:41:28;6.03;;;3.10;;
49860;SDS011;35761;48.826;9.238;2024-02-16T00:43:54;7.15;;;3.60;;
49860;SDS011;35761;48.826;9.238;2024-02-16T00:46:21;8.98;;;3.60;;
49860;SDS011;35761;48.826;9.238;2024-02-16T00:48:51;8.13;;;4.05;;
49860;SDS011;35761;48.826;9.238;2024-02-16T00:51:20;8.75;;;5.20;;
49860;SDS011;35761;48.826;9.238;2024-02-16T00:53:46;6.90;;;3.65;;
49860;SDS011;35761;48.826;9.238;2024-02-16T00:56:12;6.82;;;3.35;;
49860;SDS011;35761;48.826;9.238;2024-02-16T00:58:41;7.25;;;3.80;;
49860;SDS011;35761;48.826;9.238;2024-02-16T01:01:10;6.75;;;3.53;;
49860;SDS011;35761;48.826;9.238;2024-02-16T01:03:37;7.38;;;3.63;;
49860;SDS011;35761;48.826;9.238;2024-02-16T01:06:04;11.82;;;3.70;;
49860;SDS011;35761;48.826;9.238;2024-02-16T01:08:31;13.25;;;3.92;;
49860;SDS011;35761;48.826;9.238;2024-02-16T01:10:57;9.43;;;3.40;;
49860;SDS011;35761;48.826;9.238;2024-02-16T01:13:23;16.00;;;3.72;;
49860;SDS011;35761;48.826;9.238;2024-02-16T01:15:49;12.75;;;3.22;;
49860;SDS011;35761;48.826;9.238;2024-02-16T01:18:15;5.95;;;3.05;;
49860;SDS011;35761;48.826;9.238;2024-02-16T01:20:40;12.05;;;3.60;;
49860;SDS011;35761;48.826;9.238;2024-02-16T01:23:09;6.80;;;3.33;;
49860;SDS011;35761;48.826;9.238;2024-02-16T01:25:35;7.00;;;3.65;;
49860;SDS011;35761;48.826;9.238;2024-02-16T01:28:01;8.90;;;3.55;;
49860;SDS011;35761;48.826;9.238;2024-02-16T01:30:26;8.25;;;3.47;;
49860;SDS011;35761;48.826;9.238;2024-02-16T01:32:52;10.63;;;3.40;;
49860;SDS011;35761;48.826;9.238;2024-02-16T01:35:18;8.50;;;3.80;;
49860;SDS011;35761;48.826;9.238;2024-02-16T01:37:44;8.98;;;3.40;;
49860;SDS011;35761;48.826;9.238;2024-02-16T01:40:09;8.05;;;3.47;;
49860;SDS011;35761;48.826;9.238;2024-02-16T01:42:43;15.97;;;4.10;;
49860;SDS011;35761;48.826;9.238;2024-02-16T01:45:10;8.18;;;3.75;;
49860;SDS011;35761;48.826;9.238;2024-02-16T01:47:37;7.75;;;3.40;;
49860;SDS011;35761;48.826;9.238;2024-02-16T01:50:04;9.20;;;3.47;;
49860;SDS011;35761;48.826;9.238;2024-02-16T01:52:32;10.77;;;3.70;;
49860;SDS011;35761;48.826;9.238;2024-02-16T01:55:26;8.77;;;3.53;;
49860;SDS011;35761;48.826;9.238;2024-02-16T01:57:55;6.90;;;3.22;;
49860;SDS011;35761;48.826;9.238;2024-02-16T02:00:23;10.48;;;3.63;;
49860;SDS011;35761;48.826;9.238;2024-02-16T02:02:52;10.07;;;3.83;;
49860;SDS011;35761;48.826;9.238;2024-02-16T02:05:17;11.38;;;4.30;;
49860;SDS011;35761;48.826;9.238;2024-02-16T02:07:43;10.38;;;4.38;;
49860;SDS011;35761;48.826;9.238;2024-02-16T02:10:09;10.38;;;4.57;;
49860;SDS011;35761;48.826;9.238;2024-02-16T02:12:39;13.30;;;3.63;;
49860;SDS011;35761;48.826;9.238;2024-02-16T02:15:05;12.63;;;6.03;;
49860;SDS011;35761;48.826;9.238;2024-02-16T02:17:31;6.43;;;3.30;;
49860;SDS011;35761;48.826;9.238;2024-02-16T02:19:57;5.50;;;2.88;;
49860;SDS011;35761;48.826;9.238;2024-02-16T02:22:22;9.07;;;3.15;;
49860;SDS011;35761;48.826;9.238;2024-02-16T02:24:48;7.38;;;2.95;;
49860;SDS011;35761;48.826;9.238;2024-02-16T02:27:14;5.78;;;3.03;;
49860;SDS011;35761;48.826;9.238;2024-02-16T02:29:40;6.65;;;2.80;;
49860;SDS011;35761;48.826;9.238;2024-02-16T02:32:07;5.30;;;2.95;;
49860;SDS011;35761;48.826;9.238;2024-02-16T02:34:33;7.30;;;2.63;;
49860;SDS011;35761;48.826;9.238;2024-02-16T02:37:01;5.75;;;2.97;;
49860;SDS011;35761;48.826;9.238;2024-02-16T02:39:31;8.20;;;3.45;;
49860;SDS011;35761;48.826;9.238;2024-02-16T02:41:58;7.55;;;2.63;;
49860;SDS011;35761;48.826;9.238;2024-02-16T02:44:27;5.65;;;2.80;;
49860;SDS011;35761;48.826;9.238;2024-02-16T02:46:53;6.38;;;2.85;;
49860;SDS011;35761;48.826;9.238;2024-02-16T02:49:18;7.53;;;2.60;;
49860;SDS011;35761;48.826;9.238;2024-02-16T02:51:44;6.68;;;3.15;;
49860;SDS011;35761;48.826;9.238;2024-02-16T02:54:10;4.30;;;2.67;;
49860;SDS011;35761;48.826;9.238;2024-02-16T02:56:36;5.93;;;2.75;;
49860;SDS011;35761;48.826;9.238;2024-02-16T02:59:01;4.78;;;2.95;;
49860;SDS011;35761;48.826;9.238;2024-02-16T03:01:27;5.53;;;3.17;;
49860;SDS011;35761;48.826;9.238;2024-02-16T03:03:53;5.35;;;2.72;;
49860;SDS011;35761;48.826;9.238;2024-02-16T03:06:19;7.90;;;3.28;;
49860;SDS011;35761;48.826;9.238;2024-02-16T03:08:45;5.50;;;2.72;;
49860;SDS011;35761;48.826;9.238;2024-02-16T03:11:11;6.28;;;2.92;;
49860;SDS011;35761;48.826;9.238;2024-02-16T03:13:37;9.55;;;3.10;;
49860;SDS011;35761;48.826;9.238;2024-02-16T03:16:03;7.50;;;3.03;;
49860;SDS011;35761;48.826;9.238;2024-02-16T03:18:29;6.70;;;3.35;;
49860;SDS011;35761;48.826;9.238;2024-02-16T03:20:56;7.38;;;2.95;;
49860;SDS011;35761;48.826;9.238;2024-02-16T03:23:22;6.55;;;3.13;;
49860;SDS011;35761;48.826;9.238;2024-02-16T03:25:48;6.78;;;3.00;;
49860;SDS011;35761;48.826;9.238;2024-02-16T03:28:14;6.30;;;3.10;;
49860;SDS011;35761;48.826;9.238;2024-02-16T03:30:40;6.65;;;3.85;;
49860;SDS011;35761;48.826;9.238;2024-02-16T03:33:35;8.65;;;3.47;;
49860;SDS011;35761;48.826;9.238;2024-02-16T03:36:01;7.93;;;2.97;;
49860;SDS011;35761;48.826;9.238;2024-02-16T03:38:27;12.00;;;3.92;;
49860;SDS011;35761;48.826;9.238;2024-02-16T03:40:53;5.80;;;2.83;;
49860;SDS011;35761;48.826;9.238;2024-02-16T03:43:19;7.05;;;2.90;;
49860;SDS011;35761;48.826;9.238;2024-02-16T03:45:44;7.43;;;3.42;;
49860;SDS011;35761;48.826;9.238;2024-02-16T03:48:10;8.90;;;3.20;;
49860;SDS011;35761;48.826;9.238;2024-02-16T03:50:35;7.97;;;3.83;;
49860;SDS011;35761;48.826;9.238;2024-02-16T03:53:01;8.98;;;4.00;;
49860;SDS011;35761;48.826;9.238;2024-02-16T03:55:27;6.30;;;3.00;;
49860;SDS011;35761;48.826;9.238;2024-02-16T03:57:53;7.40;;;3.75;;
49860;SDS011;35761;48.826;9.238;2024-02-16T04:00:19;8.73;;;4.68;;
49860;SDS011;35761;48.826;9.238;2024-02-16T04:02:45;7.07;;;2.97;;
49860;SDS011;35761;48.826;9.238;2024-02-16T04:05:11;8.18;;;3.47;;
49860;SDS011;35761;48.826;9.238;2024-02-16T04:07:37;5.25;;;2.70;;
49860;SDS011;35761;48.826;9.238;2024-02-16T04:10:03;6.70;;;2.97;;
49860;SDS011;35761;48.826;9.238;2024-02-16T04:12:29;9.13;;;2.80;;
49860;SDS011;35761;48.826;9.238;2024-02-16T04:14:54;6.68;;;3.10;;
49860;SDS011;35761;48.826;9.238;2024-02-16T04:17:20;5.93;;;3.15;;
49860;SDS011;35761;48.826;9.238;2024-02-16T04:19:46;6.00;;;3.05;;
49860;SDS011;35761;48.826;9.238;2024-02-16T04:22:12;6.70;;;3.33;;
49860;SDS011;35761;48.826;9.238;2024-02-16T04:24:37;5.13;;;3.20;;
49860;SDS011;35761;48.826;9.238;2024-02-16T04:27:03;7.40;;;4.10;;
49860;SDS011;35761;48.826;9.238;2024-02-16T04:29:29;6.43;;;3.53;;
49860;SDS011;35761;48.826;9.238;2024-02-16T04:31:54;6.47;;;3.20;;
49860;SDS011;35761;48.826;9.238;2024-02-16T04:34:20;9.00;;;3.15;;
49860;SDS011;35761;48.826;9.238;2024-02-16T04:36:46;5.70;;;2.97;;
49860;SDS011;35761;48.826;9.238;2024-02-16T04:39:12;5.15;;;2.70;;
49860;SDS011;35761;48.826;9.238;2024-02-16T04:41:40;8.52;;;3.38;;
49860;SDS011;35761;48.826;9.238;2024-02-16T04:44:06;6.60;;;3.35;;
49860;SDS011;35761;48.826;9.238;2024-02-16T04:46:32;8.05;;;3.00;;
49860;SDS011;35761;48.826;9.238;2024-02-16T04:48:57;5.75;;;3.20;;
49860;SDS011;35761;48.826;9.238;2024-02-16T04:51:23;8.77;;;4.43;;
49860;SDS011;35761;48.826;9.238;2024-02-16T04:53:48;13.40;;;7.07;;
49860;SDS011;35761;48.826;9.238;2024-02-16T04:56:14;14.52;;;6.13;;
49860;SDS011;35761;48.826;9.238;2024-02-16T04:58:43;8.57;;;4.88;;
49860;SDS011;35761;48.826;9.238;2024-02-16T05:01:08;15.07;;;7.63;;
49860;SDS011;35761;48.826;9.238;2024-02-16T05:03:35;9.68;;;5.95;;
49860;SDS011;35761;48.826;9.238;2024-02-16T05:06:01;10.80;;;4.55;;
49860;SDS011;35761;48.826;9.238;2024-02-16T05:08:26;7.25;;;4.07;;
49860;SDS011;35761;48.826;9.238;2024-02-16T05:10:52;11.38;;;4.35;;
49860;SDS011;35761;48.826;9.238;2024-02-16T05:13:17;7.78;;;4.05;;
49860;SDS011;35761;48.826;9.238;2024-02-16T05:15:43;7.03;;;3.63;;
49860;SDS011;35761;48.826;9.238;2024-02-16T05:18:09;8.30;;;4.70;;
49860;SDS011;35761;48.826;9.238;2024-02-16T05:20:37;10.70;;;5.47;;
49860;SDS011;35761;48.826;9.238;2024-02-16T05:23:03;9.85;;;4.18;;
49860;SDS011;35761;48.826;9.238;2024-02-16T05:25:29;8.40;;;3.92;;
49860;SDS011;35761;48.826;9.238;2024-02-16T05:27:55;7.85;;;3.97;;
49860;SDS011;35761;48.826;9.238;2024-02-16T05:30:21;9.32;;;4.25;;
49860;SDS011;35761;48.826;9.238;2024-02-16T05:32:46;9.00;;;3.95;;
49860;SDS011;35761;48.826;9.238;2024-02-16T05:35:16;6.97;;;3.72;;
49860;SDS011;35761;48.826;9.238;2024-02-16T05:37:44;6.95;;;3.92;;
49860;SDS011;35761;48.826;9.238;2024-02-16T05:40:16;7.88;;;3.95;;
49860;SDS011;35761;48.826;9.238;2024-02-16T05:42:59;6.32;;;3.67;;
49860;SDS011;35761;48.826;9.238;2024-02-16T05:45:26;8.48;;;4.00;;
49860;SDS011;35761;48.826;9.238;2024-02-16T05:47:52;7.32;;;3.10;;
49860;SDS011;35761;48.826;9.238;2024-02-16T05:50:19;11.88;;;6.22;;
49860;SDS011;35761;48.826;9.238;2024-02-16T05:52:46;11.10;;;4.53;;
49860;SDS011;35761;48.826;9.238;2024-02-16T05:55:12;11.10;;;5.80;;
49860;SDS011;35761;48.826;9.238;2024-02-16T05:57:41;7.63;;;3.85;;
49860;SDS011;35761;48.826;9.238;2024-02-16T06:00:07;7.63;;;3.35;;
49860;SDS011;35761;48.826;9.238;2024-02-16T06:02:34;7.45;;;3.40;;
49860;SDS011;35761;48.826;9.238;2024-02-16T06:05:01;6.53;;;3.83;;
49860;SDS011;35761;48.826;9.238;2024-02-16T06:07:28;10.98;;;4.38;;
49860;SDS011;35761;48.826;9.238;2024-02-16T06:09:54;9.85;;;4.13;;
49860;SDS011;35761;48.826;9.238;2024-02-16T06:12:21;6.90;;;3.78;;
49860;SDS011;35761;48.826;9.238;2024-02-16T06:14:47;17.85;;;4.28;;
49860;SDS011;35761;48.826;9.238;2024-02-16T06:17:14;8.57;;;4.15;;
49860;SDS011;35761;48.826;9.238;2024-02-16T06:19:40;6.32;;;3.10;;
49860;SDS011;35761;48.826;9.238;2024-02-16T06:22:09;12.57;;;3.80;;
49860;SDS011;35761;48.826;9.238;2024-02-16T06:24:35;7.13;;;3.90;;
49860;SDS011;35761;48.826;9.238;2024-02-16T06:27:02;7.07;;;3.80;;
49860;SDS011;35761;48.826;9.238;2024-02-16T06:29:28;7.10;;;3.58;;
49860;SDS011;35761;48.826;9.238;2024-02-16T06:31:55;7.28;;;3.45;;
49860;SDS011;35761;48.826;9.238;2024-02-16T06:34:22;7.25;;;3.38;;
49860;SDS011;35761;48.826;9.238;2024-02-16T06:36:48;7.40;;;3.35;;
49860;SDS011;35761;48.826;9.238;2024-02-16T06:39:17;6.72;;;3.28;;
49860;SDS011;35761;48.826;9.238;2024-02-16T06:41:46;6.85;;;3.55;;
49860;SDS011;35761;48.826;9.238;2024-02-16T06:44:14;5.47;;;3.22;;
49860;SDS011;35761;48.826;9.238;2024-02-16T06:46:41;9.68;;;3.22;;
49860;SDS011;35761;48.826;9.238;2024-02-16T06:49:07;8.32;;;3.65;;
49860;SDS011;35761;48.826;9.238;2024-02-16T06:51:33;8.13;;;4.45;;
49860;SDS011;35761;48.826;9.238;2024-02-16T06:53:59;5.70;;;3.55;;
49860;SDS011;35761;48.826;9.238;2024-02-16T06:56:25;7.47;;;3.40;;
49860;SDS011;35761;48.826;9.238;2024-02-16T06:58:50;5.88;;;3.22;;
49860;SDS011;35761;48.826;9.238;2024-02-16T07:01:16;6.90;;;3.45;;
49860;SDS011;35761;48.826;9.238;2024-02-16T07:03:45;8.60;;;3.28;;
49860;SDS011;35761;48.826;9.238;2024-02-16T07:06:11;8.38;;;3.50;;
49860;SDS011;35761;48.826;9.238;2024-02-16T07:08:40;9.02;;;3.00;;
49860;SDS011;35761;48.826;9.238;2024-02-16T07:11:06;5.82;;;3.22;;
49860;SDS011;35761;48.826;9.238;2024-02-16T07:13:32;9.40;;;3.40;;
49860;SDS011;35761;48.826;9.238;2024-02-16T07:15:59;5.93;;;3.22;;
49860;SDS011;35761;48.826;9.238;2024-02-16T07:18:25;13.80;;;4.28;;
49860;SDS011;35761;48.826;9.238;2024-02-16T07:20:51;10.98;;;3.58;;
49860;SDS011;35761;48.826;9.238;2024-02-16T07:23:17;9.30;;;3.85;;
49860;SDS011;35761;48.826;9.238;2024-02-16T07:25:43;8.13;;;4.22;;
49860;SDS011;35761;48.826;9.238;2024-02-16T07:28:09;9.32;;;5.32;;
49860;SDS011;35761;48.826;9.238;2024-02-16T07:30:35;10.00;;;4.30;;
49860;SDS011;35761;48.826;9.238;2024-02-16T07:33:04;11.55;;;4.03;;
49860;SDS011;35761;48.826;9.238;2024-02-16T07:35:32;7.50;;;3.33;;
49860;SDS011;35761;48.826;9.238;2024-02-16T07:38:01;7.78;;;4.45;;
49860;SDS011;35761;48.826;9.238;2024-02-16T07:40:27;12.75;;;5.30;;
49860;SDS011;35761;48.826;9.238;2024-02-16T07:42:53;7.53;;;4.03;;
49860;SDS011;35761;48.826;9.238;2024-02-16T07:45:20;9.10;;;4.10;;
49860;SDS011;35761;48.826;9.238;2024-02-16T07:47:46;6.80;;;3.72;;
49860;SDS011;35761;48.826;9.238;2024-02-16T07:50:12;10.57;;;4.10;;
49860;SDS011;35761;48.826;9.238;2024-02-16T07:52:39;8.82;;;4.65;;
49860;SDS011;35761;48.826;9.238;2024-02-16T07:55:05;9.30;;;5.43;;
49860;SDS011;35761;48.826;9.238;2024-02-16T07:57:32;13.13;;;4.68;;
49860;SDS011;35761;48.826;9.238;2024-02-16T07:59:58;12.80;;;4.90;;
49860;SDS011;35761;48.826;9.238;2024-02-16T08:02:24;13.55;;;5.53;;
49860;SDS011;35761;48.826;9.238;2024-02-16T08:04:49;11.30;;;4.68;;
49860;SDS011;35761;48.826;9.238;2024-02-16T08:07:24;9.80;;;4.07;;
49860;SDS011;35761;48.826;9.238;2024-02-16T08:09:52;9.25;;;4.43;;
49860;SDS011;35761;48.826;9.238;2024-02-16T08:12:18;9.05;;;3.80;;
49860;SDS011;35761;48.826;9.238;2024-02-16T08:14:44;10.55;;;4.32;;
49860;SDS011;35761;48.826;9.238;2024-02-16T08:17:11;8.32;;;4.00;;
49860;SDS011;35761;48.826;9.238;2024-02-16T08:19:37;13.00;;;4.22;;
49860;SDS011;35761;48.826;9.238;2024-02-16T08:22:05;13.57;;;4.85;;
49860;SDS011;35761;48.826;9.238;2024-02-16T08:24:35;16.13;;;5.35;;
49860;SDS011;35761;48.826;9.238;2024-02-16T08:27:02;14.20;;;4.63;;
49860;SDS011;35761;48.826;9.238;2024-02-16T08:29:28;16.25;;;5.18;;
49860;SDS011;35761;48.826;9.238;2024-02-16T08:31:54;10.30;;;4.75;;
49860;SDS011;35761;48.826;9.238;2024-02-16T08:34:20;11.18;;;4.53;;
49860;SDS011;35761;48.826;9.238;2024-02-16T08:36:49;11.05;;;4.07;;
49860;SDS011;35761;48.826;9.238;2024-02-16T08:39:17;12.10;;;4.25;;
49860;SDS011;35761;48.826;9.238;2024-02-16T08:41:50;10.27;;;5.60;;
49860;SDS011;35761;48.826;9.238;2024-02-16T08:44:18;12.30;;;7.07;;
49860;SDS011;35761;48.826;9.238;2024-02-16T08:46:44;18.95;;;4.97;;
49860;SDS011;35761;48.826;9.238;2024-02-16T08:49:23;11.40;;;4.28;;
49860;SDS011;35761;48.826;9.238;2024-02-16T08:52:38;11.23;;;4.32;;
49860;SDS011;35761;48.826;9.238;2024-02-16T08:55:04;20.40;;;5.05;;
49860;SDS011;35761;48.826;9.238;2024-02-16T08:57:36;8.70;;;3.97;;
49860;SDS011;35761;48.826;9.238;2024-02-16T09:00:02;7.03;;;3.20;;
49860;SDS011;35761;48.826;9.238;2024-02-16T09:02:30;9.85;;;3.53;;
49860;SDS011;35761;48.826;9.238;2024-02-16T09:04:56;7.40;;;3.28;;
49860;SDS011;35761;48.826;9.238;2024-02-16T09:07:35;7.55;;;2.88;;
49860;SDS011;35761;48.826;9.238;2024-02-16T09:10:01;5.05;;;2.58;;
49860;SDS011;35761;48.826;9.238;2024-02-16T09:12:27;9.57;;;2.80;;
49860;SDS011;35761;48.826;9.238;2024-02-16T09:14:52;6.75;;;3.45;;
49860;SDS011;35761;48.826;9.238;2024-02-16T09:17:18;7.32;;;2.92;;
49860;SDS011;35761;48.826;9.238;2024-02-16T09:19:45;5.10;;;2.55;;
49860;SDS011;35761;48.826;9.238;2024-02-16T09:22:11;6.78;;;2.78;;
49860;SDS011;35761;48.826;9.238;2024-02-16T09:24:36;6.05;;;3.00;;
49860;SDS011;35761;48.826;9.238;2024-02-16T09:27:14;8.90;;;2.90;;
49860;SDS011;35761;48.826;9.238;2024-02-16T09:29:51;7.82;;;2.90;;
49860;SDS011;35761;48.826;9.238;2024-02-16T09:32:17;7.03;;;2.80;;
49860;SDS011;35761;48.826;9.238;2024-02-16T09:34:43;8.02;;;3.33;;
49860;SDS011;35761;48.826;9.238;2024-02-16T09:37:08;5.03;;;2.72;;
49860;SDS011;35761;48.826;9.238;2024-02-16T09:39:34;7.93;;;2.85;;
49860;SDS011;35761;48.826;9.238;2024-02-16T09:41:59;7.30;;;3.25;;
49860;SDS011;35761;48.826;9.238;2024-02-16T09:44:25;10.13;;;3.83;;
49860;SDS011;35761;48.826;9.238;2024-02-16T09:46:52;4.82;;;3.03;;
49860;SDS011;35761;48.826;9.238;2024-02-16T09:49:19;8.05;;;3.25;;
49860;SDS011;35761;48.826;9.238;2024-02-16T09:51:44;8.48;;;3.38;;
49860;SDS011;35761;48.826;9.238;2024-02-16T09:54:10;7.95;;;2.88;;
49860;SDS011;35761;48.826;9.238;2024-02-16T09:56:36;8.40;;;3.03;;
49860;SDS011;35761;48.826;9.238;2024-02-16T09:59:02;9.85;;;3.25;;
49860;SDS011;35761;48.826;9.238;2024-02-16T10:01:28;8.95;;;3.25;;
49860;SDS011;35761;48.826;9.238;2024-02-16T10:03:59;9.57;;;3.30;;
49860;SDS011;35761;48.826;9.238;2024-02-16T10:06:31;8.82;;;3.25;;
49860;SDS011;35761;48.826;9.238;2024-02-16T10:08:56;10.07;;;3.40;;
49860;SDS011;35761;48.826;9.238;2024-02-16T10:11:22;13.50;;;4.38;;
49860;SDS011;35761;48.826;9.238;2024-02-16T10:13:59;16.75;;;5.22;;
49860;SDS011;35761;48.826;9.238;2024-02-16T10:16:26;9.68;;;4.45;;
49860;SDS011;35761;48.826;9.238;2024-02-16T10:18:55;11.82;;;4.25;;
49860;SDS011;35761;48.826;9.238;2024-02-16T10:21:25;12.00;;;3.85;;
49860;SDS011;35761;48.826;9.238;2024-02-16T10:24:02;13.75;;;3.78;;
49860;SDS011;35761;48.826;9.238;2024-02-16T10:26:31;9.52;;;3.55;;
49860;SDS011;35761;48.826;9.238;2024-02-16T10:28:57;13.25;;;3.72;;
49860;SDS011;35761;48.826;9.238;2024-02-16T10:31:23;16.30;;;3.40;;
49860;SDS011;35761;48.826;9.238;2024-02-16T10:34:13;10.57;;;3.95;;
49860;SDS011;35761;48.826;9.238;2024-02-16T10:36:41;11.50;;;3.88;;
49860;SDS011;35761;48.826;9.238;2024-02-16T10:39:07;7.82;;;3.60;;
49860;SDS011;35761;48.826;9.238;2024-02-16T10:41:36;5.38;;;3.17;;
49860;SDS011;35761;48.826;9.238;2024-02-16T10:44:03;9.05;;;3.60;;
49860;SDS011;35761;48.826;9.238;2024-02-16T10:46:29;11.10;;;3.50;;
49860;SDS011;35761;48.826;9.238;2024-02-16T10:48:55;9.48;;;3.63;;
49860;SDS011;35761;48.826;9.238;2024-02-16T10:51:33;10.15;;;3.22;;
49860;SDS011;35761;48.826;9.238;2024-02-16T10:54:01;6.97;;;2.88;;
49860;SDS011;35761;48.826;9.238;2024-02-16T10:56:27;10.10;;;3.13;;
49860;SDS011;35761;48.826;9.238;2024-02-16T10:58:59;6.43;;;2.70;;
49860;SDS011;35761;48.826;9.238;2024-02-16T11:01:25;13.40;;;3.25;;
49860;SDS011;35761;48.826;9.238;2024-02-16T11:03:59;8.13;;;3.13;;
49860;SDS011;35761;48.826;9.238;2024-02-16T11:06:26;6.82;;;3.00;;
49860;SDS011;35761;48.826;9.238;2024-02-16T11:08:52;11.95;;;3.17;;
49860;SDS011;35761;48.826;9.238;2024-02-16T11:11:23;8.70;;;3.00;;
49860;SDS011;35761;48.826;9.238;2024-02-16T11:13:49;15.75;;;3.13;;
49860;SDS011;35761;48.826;9.238;2024-02-16T11:16:14;8.98;;;2.95;;
49860;SDS011;35761;48.826;9.238;2024-02-16T11:18:43;6.15;;;2.47;;
49860;SDS011;35761;48.826;9.238;2024-02-16T11:21:14;8.43;;;2.90;;
49860;SDS011;35761;48.826;9.238;2024-02-16T11:23:40;6.60;;;2.83;;
49860;SDS011;35761;48.826;9.238;2024-02-16T11:26:09;6.65;;;2.58;;
49860;SDS011;35761;48.826;9.238;2024-02-16T11:28:38;7.97;;;2.60;;
49860;SDS011;35761;48.826;9.238;2024-02-16T11:31:05;8.07;;;3.00;;
49860;SDS011;35761;48.826;9.238;2024-02-16T11:33:31;12.50;;;4.30;;
49860;SDS011;35761;48.826;9.238;2024-02-16T11:35:57;11.05;;;3.88;;
49860;SDS011;35761;48.826;9.238;2024-02-16T11:38:23;9.73;;;2.83;;
49860;SDS011;35761;48.826;9.238;2024-02-16T11:40:53;9.40;;;2.90;;
49860;SDS011;35761;48.826;9.238;2024-02-16T11:43:22;7.07;;;3.03;;
49860;SDS011;35761;48.826;9.238;2024-02-16T11:45:50;7.65;;;3.00;;
49860;SDS011;35761;48.826;9.238;2024-02-16T11:48:19;9.25;;;3.30;;
49860;SDS011;35761;48.826;9.238;2024-02-16T11:50:46;9.27;;;2.80;;
49860;SDS011;35761;48.826;9.238;2024-02-16T11:53:18;7.65;;;2.88;;
49860;SDS011;35761;48.826;9.238;2024-02-16T11:55:48;11.13;;;3.75;;
49860;SDS011;35761;48.826;9.238;2024-02-16T11:58:17;7.68;;;3.42;;
49860;SDS011;35761;48.826;9.238;2024-02-16T12:00:44;6.95;;;2.65;;
49860;SDS011;35761;48.826;9.238;2024-02-16T12:03:10;6.75;;;2.55;;
49860;SDS011;35761;48.826;9.238;2024-02-16T12:05:35;10.98;;;3.17;;
49860;SDS011;35761;48.826;9.238;2024-02-16T12:08:01;6.25;;;2.50;;
49860;SDS011;35761;48.826;9.238;2024-02-16T12:10:26;8.50;;;4.10;;
49860;SDS011;35761;48.826;9.238;2024-02-16T12:12:52;10.70;;;4.05;;
49860;SDS011;35761;48.826;9.238;2024-02-16T12:15:18;5.82;;;2.92;;
49860;SDS011;35761;48.826;9.238;2024-02-16T12:17:45;10.35;;;4.03;;
49860;SDS011;35761;48.826;9.238;2024-02-16T12:20:11;7.90;;;3.33;;
49860;SDS011;35761;48.826;9.238;2024-02-16T12:22:40;8.60;;;2.58;;
49860;SDS011;35761;48.826;9.238;2024-02-16T12:25:05;9.00;;;2.97;;
49860;SDS011;35761;48.826;9.238;2024-02-16T12:27:31;6.22;;;3.30;;
49860;SDS011;35761;48.826;9.238;2024-02-16T12:29:57;7.25;;;2.60;;
49860;SDS011;35761;48.826;9.238;2024-02-16T12:32:22;9.90;;;3.25;;
49860;SDS011;35761;48.826;9.238;2024-02-16T12:34:48;8.32;;;2.80;;
49860;SDS011;35761;48.826;9.238;2024-02-16T12:37:14;10.18;;;4.15;;
49860;SDS011;35761;48.826;9.238;2024-02-16T12:39:39;6.47;;;2.97;;
49860;SDS011;35761;48.826;9.238;2024-02-16T12:42:06;6.78;;;2.85;;
49860;SDS011;35761;48.826;9.238;2024-02-16T12:44:32;9.13;;;3.17;;
49860;SDS011;35761;48.826;9.238;2024-02-16T12:46:57;7.18;;;2.78;;
49860;SDS011;35761;48.826;9.238;2024-02-16T12:49:23;7.80;;;2.67;;
49860;SDS011;35761;48.826;9.238;2024-02-16T12:51:49;15.40;;;3.15;;
49860;SDS011;35761;48.826;9.238;2024-02-16T12:54:15;12.00;;;3.60;;
49860;SDS011;35761;48.826;9.238;2024-02-16T12:56:44;6.28;;;3.05;;
49860;SDS011;35761;48.826;9.238;2024-02-16T12:59:10;6.68;;;2.83;;
49860;SDS011;35761;48.826;9.238;2024-02-16T13:01:36;15.48;;;3.50;;
49860;SDS011;35761;48.826;9.238;2024-02-16T13:04:02;13.48;;;3.15;;
49860;SDS011;35761;48.826;9.238;2024-02-16T13:06:27;13.10;;;3.58;;
49860;SDS011;35761;48.826;9.238;2024-02-16T13:08:53;10.35;;;2.70;;
49860;SDS011;35761;48.826;9.238;2024-02-16T13:11:19;8.20;;;2.90;;
49860;SDS011;35761;48.826;9.238;2024-02-16T13:13:44;8.93;;;3.50;;
49860;SDS011;35761;48.826;9.238;2024-02-16T13:16:10;12.57;;;2.88;;
49860;SDS011;35761;48.826;9.238;2024-02-16T13:18:35;7.88;;;2.60;;
49860;SDS011;35761;48.826;9.238;2024-02-16T13:21:01;9.75;;;2.63;;
49860;SDS011;35761;48.826;9.238;2024-02-16T13:23:26;7.50;;;2.78;;
49860;SDS011;35761;48.826;9.238;2024-02-16T13:25:54;8.45;;;3.00;;
49860;SDS011;35761;48.826;9.238;2024-02-16T13:28:20;13.38;;;3.10;;
49860;SDS011;35761;48.826;9.238;2024-02-16T13:30:45;15.00;;;4.30;;
49860;SDS011;35761;48.826;9.238;2024-02-16T13:33:11;13.82;;;4.95;;
49860;SDS011;35761;48.826;9.238;2024-02-16T13:35:37;8.20;;;3.25;;
49860;SDS011;35761;48.826;9.238;2024-02-16T13:38:03;13.70;;;2.75;;
49860;SDS011;35761;48.826;9.238;2024-02-16T13:40:29;16.02;;;3.20;;
49860;SDS011;35761;48.826;9.238;2024-02-16T13:42:54;8.10;;;2.45;;
49860;SDS011;35761;48.826;9.238;2024-02-16T13:45:27;10.43;;;2.85;;
49860;SDS011;35761;48.826;9.238;2024-02-16T13:47:53;5.80;;;2.53;;
49860;SDS011;35761;48.826;9.238;2024-02-16T13:50:22;16.52;;;3.08;;
49860;SDS011;35761;48.826;9.238;2024-02-16T13:52:47;12.70;;;2.88;;
49860;SDS011;35761;48.826;9.238;2024-02-16T13:55:14;9.00;;;2.88;;
49860;SDS011;35761;48.826;9.238;2024-02-16T13:57:40;9.15;;;3.00;;
49860;SDS011;35761;48.826;9.238;2024-02-16T14:00:06;10.13;;;3.65;;
49860;SDS011;35761;48.826;9.238;2024-02-16T14:02:37;10.93;;;3.65;;
49860;SDS011;35761;48.826;9.238;2024-02-16T14:05:03;11.57;;;2.90;;
49860;SDS011;35761;48.826;9.238;2024-02-16T14:07:28;8.32;;;3.10;;
49860;SDS011;35761;48.826;9.238;2024-02-16T14:09:56;9.30;;;3.08;;
49860;SDS011;35761;48.826;9.238;2024-02-16T14:12:21;12.00;;;3.13;;
49860;SDS011;35761;48.826;9.238;2024-02-16T14:14:46;7.22;;;3.03;;
49860;SDS011;35761;48.826;9.238;2024-02-16T14:17:13;14.05;;;4.88;;
49860;SDS011;35761;48.826;9.238;2024-02-16T14:19:39;11.20;;;4.03;;
49860;SDS011;35761;48.826;9.238;2024-02-16T14:22:06;11.50;;;2.83;;
49860;SDS011;35761;48.826;9.238;2024-02-16T14:24:32;11.55;;;3.15;;
49860;SDS011;35761;48.826;9.238;2024-02-16T14:26:58;18.75;;;3.67;;
49860;SDS011;35761;48.826;9.238;2024-02-16T14:29:24;10.75;;;3.40;;
49860;SDS011;35761;48.826;9.238;2024-02-16T14:31:50;10.38;;;2.47;;
49860;SDS011;35761;48.826;9.238;2024-02-16T14:34:15;10.98;;;2.85;;
49860;SDS011;35761;48.826;9.238;2024-02-16T14:36:41;15.48;;;2.88;;
49860;SDS011;35761;48.826;9.238;2024-02-16T14:39:06;14.00;;;3.40;;
49860;SDS011;35761;48.826;9.238;2024-02-16T14:41:33;13.73;;;3.42;;
49860;SDS011;35761;48.826;9.238;2024-02-16T14:43:59;8.38;;;2.97;;